• Join FlightAware (Why Join?)
  • Login
  • US Flag 
04:54AM EDT


 

Airport Tracker/Info


-or-


 

Live Flight TrackerFlight Track Log ✈ GJS3707 ✈ 18-Jul-2013 ✈ KBOI - KORD

Flight Track Log - Related Links

Times and Time Zones

All times are in EDT time to prevent confusion due to time zone crossing. See the GJS3707 flight status page for this flight to view local times or setup timezone preferences in your user account.

Time Position Orientation Groundspeed Altitude Reporting Facility
EDT Latitude Longitude Course Direction KTS MPH feet Rate Location/Type
03:11PM 43.6003 -116.2822 81° East 198 228 5,200  Level Salt Lake Center
03:12PM 43.6508 -116.3503 316° Northwest 245 282 6,700 1,560 Climbing Salt Lake Center
03:13PM 43.7075 -116.4161 320° Northwest 278 320 8,500 1,800 Climbing Salt Lake Center
03:14PM 43.6534 -115.5398 65° Northeast  Level FlightAware Approximate
03:14PM 43.7742 -116.3481 36° Northeast 302 348 10,500  Level Salt Lake Center
03:15PM 43.6738 -115.3699 81° East  Level FlightAware Approximate
03:15PM 43.7778 -116.2275 88° East 327 376 11,700  Level Salt Lake Center
03:16PM 43.7036 -115.2015 81° East  Level FlightAware Approximate
03:16PM 43.7928 -116.0736 82° East 356 410 13,500  Level Salt Lake Center
03:17PM 43.7228 -115.0287 81° East  Level FlightAware Approximate
03:17PM 43.8056 -115.9344 83° East 376 433 15,000  Level Salt Lake Center
03:18PM 43.8206 -115.7675 83° East 392 451 16,600 1,320 Climbing Salt Lake Center
03:19PM 43.8347 -115.6203 82° East 402 463 17,800 1,320 Climbing Salt Lake Center
03:21PM 43.8503 -115.4433 83° East 415 478 19,400 1,380 Climbing Salt Lake Center
03:22PM 43.8642 -115.2889 83° East 423 487 20,700 1,260 Climbing Salt Lake Center
03:23PM 43.8808 -115.1050 83° East 431 496 22,100 1,260 Climbing Salt Lake Center
03:24PM 43.8936 -114.9472 84° East 432 497 23,400 1,260 Climbing Salt Lake Center
03:25PM 43.9086 -114.7586 84° East 439 505 24,800 960 Climbing Salt Lake Center
03:26PM 43.9217 -114.5944 84° East 448 516 25,500 600 Climbing Salt Lake Center
03:27PM 43.9389 -114.3931 83° East 473 544 26,100 600 Climbing Salt Lake Center
03:28PM 43.9514 -114.2169 84° East 479 551 26,800 720 Climbing Salt Lake Center
03:29PM 43.9672 -114.0367 83° East 491 565 27,600 720 Climbing Salt Lake Center
03:30PM 43.9833 -113.8189 84° East 493 567 28,400 720 Climbing Salt Lake Center
03:31PM 43.9964 -113.6336 84° East 503 579 29,100 720 Climbing Salt Lake Center
03:32PM 44.0089 -113.4200 85° East 498 573 30,000 420 Climbing Salt Lake Center
03:33PM 44.0242 -113.2356 83° East 502 578 30,000  Level Salt Lake Center
03:34PM 44.0386 -113.0164 85° East 509 586 30,000  Level Salt Lake Center
03:35PM 44.0500 -112.8292 85° East 509 586 30,000  Level Salt Lake Center
03:36PM 44.0653 -112.6097 84° East 511 588 30,000  Level Salt Lake Center
03:37PM 44.0758 -112.4228 85° East 509 586 30,000  Level Salt Lake Center
03:38PM 44.0864 -112.2342 85° East 512 589 30,000  Level Salt Lake Center
03:39PM 44.0914 -112.0194 88° East 504 580 30,000 60 Level Salt Lake Center
03:40PM 44.0919 -111.8322 90° East 506 582 30,200 480 Climbing Salt Lake Center
03:41PM 44.0939 -111.6150 89° East 506 582 31,000 360 Climbing Salt Lake Center
03:42PM 44.0933 -111.3969 90° East 509 586 31,000  Level Salt Lake Center
03:43PM 44.0936 -111.2094 90° East 510 587 31,000  Level Salt Lake Center
03:44PM 44.0933 -110.9886 90° East 513 590 31,000  Level Salt Lake Center
03:45PM 44.0939 -110.8000 90° East 512 589 31,000  Level Salt Lake Center
03:46PM 44.0925 -110.5800 90° East 512 589 31,000  Level Salt Lake Center
03:47PM 44.0933 -110.3903 90° East 513 590 31,000  Level Salt Lake Center
03:48PM 44.0914 -110.2039 91° East 508 585 31,000  Level Salt Lake Center
03:49PM 44.0900 -109.9858 90° East 505 581 31,000  Level Salt Lake Center
03:51PM 44.0869 -109.7978 91° East 508 585 31,000  Level Salt Lake Center
03:52PM 44.0856 -109.5803 90° East 505 581 31,000  Level Salt Lake Center
03:53PM 44.0811 -109.3783 92° East 499 574 31,000  Level Salt Lake Center
03:54PM 44.0778 -109.1867 91° East 498 573 31,000  Level Salt Lake Center
03:55PM 44.0739 -108.9922 92° East 504 580 31,000  Level Salt Lake Center
03:56PM 44.0711 -108.7986 91° East 505 581 31,000  Level Salt Lake Center
03:57PM 44.0667 -108.6042 92° East 507 583 31,000  Level Salt Lake Center
03:58PM 44.0614 -108.3700 92° East 509 586 31,000  Level Salt Lake Center
03:59PM 44.0561 -108.1733 92° East 512 589 31,000  Level Salt Lake Center
04:00PM 44.0514 -107.9753 92° East 516 594 31,000  Level Salt Lake Center
04:01PM 44.0453 -107.7764 92° East 518 596 31,000  Level Salt Lake Center
04:02PM 44.0406 -107.5764 92° East 523 602 31,000  Level Salt Lake Center
04:03PM 44.0322 -107.3361 93° East 523 602 31,000  Level Salt Lake Center
04:04PM 44.0247 -107.1383 93° East 519 597 31,000  Level Salt Lake Center
04:05PM 44.0189 -106.9400 92° East 517 595 31,000  Level Salt Lake Center
04:06PM 44.0119 -106.7436 93° East 514 592 31,000  Level Salt Lake Center
04:07PM 44.0047 -106.5453 93° East 515 593 31,000  Level Salt Lake Center
04:08PM 43.9997 -106.3086 92° East 515 593 31,000  Level Salt Lake Center
04:09PM 44.0044 -106.1306 88° East 516 594 31,000  Level Salt Lake Center
04:10PM 44.0058 -105.9061 89° East 519 597 31,000  Level Salt Lake Center
04:11PM 44.0239 -105.7206 82° East 511 588 31,000  Level Denver Center
04:12PM 44.0558 -105.5033 78° East 514 592 31,000  Level Denver Center
04:13PM 44.0844 -105.3147 78° East 517 595 31,000  Level Denver Center
04:14PM 44.1189 -105.0969 78° East 516 594 31,000  Level Denver Center
04:15PM 44.1372 -104.9064 82° East 517 595 31,000  Level Denver Center
04:16PM 44.1589 -104.6856 82° East 516 594 31,000  Level Denver Center
04:17PM 44.1778 -104.4956 82° East 516 594 31,000  Level Denver Center
04:19PM 44.2017 -104.2433 82° East 514 592 31,000  Level Denver Center
04:20PM 44.2200 -103.9908 84° East 515 593 31,000  Level Denver Center
04:21PM 44.2289 -103.7992 86° East 516 594 31,000  Level Denver Center
04:22PM 44.2392 -103.6069 86° East 518 596 31,000  Level Denver Center
04:23PM 44.2508 -103.3844 86° East 516 594 31,000  Level Denver Center
04:24PM 44.2628 -103.1947 85° East 514 592 31,000  Level Denver Center
04:25PM 44.2769 -102.9675 85° East 515 593 31,000  Level Denver Center
04:26PM 44.2869 -102.7669 86° East 518 596 31,000  Level Denver Center
04:27PM 44.2714 -102.5667 96° East 522 601 31,000  Level Denver Center
04:28PM 44.2542 -102.3681 97° East 518 596 31,000  Level Denver Center
04:29PM 44.2375 -102.1697 97° East 518 596 31,000  Level Denver Center
04:30PM 44.2150 -101.9681 99° East 524 603 31,000  Level Denver Center
04:31PM 44.1922 -101.7275 97° East 525 604 31,000  Level Denver Center
04:32PM 44.1747 -101.5306 97° East 519 597 31,000  Level Denver Center
04:33PM 44.1547 -101.3322 98° East 518 596 31,000  Level Denver Center
04:34PM 44.1361 -101.1372 98° East 514 592 31,000  Level Denver Center
04:35PM 44.1172 -100.9422 98° East 511 588 31,000  Level Denver Center
04:37PM 44.0942 -100.6744 97° East 508 585 31,000  Level Minneapolis Center
04:38PM 44.0733 -100.4783 98° East 512 589 31,000  Level Minneapolis Center
04:39PM 44.0503 -100.2447 98° East 512 589 31,000  Level Minneapolis Center
04:40PM 44.0403 -100.0514 94° East 507 583 31,000  Level Minneapolis Center
04:41PM 44.0256 -99.8211 95° East 503 579 31,000  Level Minneapolis Center
04:42PM 44.0117 -99.6306 96° East 500 575 31,000  Level Minneapolis Center
04:43PM 43.9997 -99.4383 95° East 501 577 31,000  Level Minneapolis Center
04:44PM 43.9850 -99.2506 96° East 495 570 31,000  Level Minneapolis Center
04:45PM 43.9692 -99.0217 95° East 498 573 31,000  Level Minneapolis Center
04:46PM 43.9556 -98.8300 96° East 501 577 31,000  Level Minneapolis Center
04:47PM 43.9408 -98.6478 96° East 500 575 31,000  Level Minneapolis Center
04:48PM 43.9267 -98.4553 96° East 501 577 31,000  Level Minneapolis Center
04:49PM 43.9086 -98.2236 96° East 503 579 31,000  Level Minneapolis Center
04:50PM 43.8922 -98.0319 97° East 504 580 31,000  Level Minneapolis Center
04:51PM 43.8775 -97.8403 96° East 502 578 31,000  Level Minneapolis Center
04:52PM 43.8608 -97.6481 97° East 504 580 31,000  Level Minneapolis Center
04:53PM 43.8436 -97.4564 97° East 503 579 31,000  Level Minneapolis Center
04:54PM 43.8435 -97.4637 97° East  Level FlightAware Approximate
04:55PM 43.8272 -97.2642 97° East 505 581 31,000  Level Minneapolis Center
04:56PM 43.8067 -97.0344 97° East 505 581 31,000  Level Minneapolis Center
04:57PM 43.7886 -96.8444 97° East 503 579 31,000  Level Minneapolis Center
04:58PM 43.7733 -96.6919 98° East 503 579 31,000  Level Minneapolis Center
04:59PM 43.7517 -96.4647 97° East 503 579 31,000  Level Minneapolis Center
05:00PM 43.7306 -96.2394 97° East 501 577 31,000  Level Minneapolis Center
05:01PM 43.7161 -96.0894 98° East 499 574 31,000  Level Minneapolis Center
05:02PM 43.6947 -95.8683 98° East 491 565 31,000  Level Minneapolis Center
05:03PM 43.6758 -95.6869 98° East 484 557 31,000  Level Minneapolis Center
05:04PM 43.6536 -95.4683 98° East 483 556 31,000  Level Minneapolis Center
05:05PM 43.6303 -95.2472 98° East 488 562 31,000  Level Minneapolis Center
05:06PM 43.6133 -95.0989 99° East 489 563 31,000  Level Minneapolis Center
05:07PM 43.5889 -94.8783 99° East 489 563 31,000  Level Minneapolis Center
05:08PM 43.5681 -94.6986 99° East 478 550 31,000  Level Minneapolis Center
05:09PM 43.5486 -94.5194 98° East 474 545 31,000  Level Minneapolis Center
05:10PM 43.5275 -94.3386 99° East 477 549 31,000  Level Minneapolis Center
05:11PM 43.5050 -94.1494 99° East 480 552 31,000  Level Minneapolis Center
05:13PM 43.4819 -93.9700 100° East 481 554 31,000  Level Minneapolis Center
05:14PM 43.4519 -93.7189 99° East 480 552 31,000  Level Minneapolis Center
05:15PM 43.4264 -93.5031 99° East 480 552 31,000  Level Minneapolis Center
05:16PM 43.4047 -93.3258 99° East 476 548 31,000  Level Minneapolis Center
05:17PM 43.3825 -93.1464 100° East 478 550 31,000  Level Minneapolis Center
05:18PM 43.3553 -92.9328 100° East 478 550 31,000  Level Minneapolis Center
05:19PM 43.3294 -92.7231 100° East 471 542 31,000  Level Minneapolis Center
05:20PM 43.3064 -92.5542 101° East 458 527 31,000  Level Minneapolis Center
05:21PM 43.2850 -92.3881 100° East 448 516 31,000  Level Minneapolis Center
05:22PM 43.2631 -92.2231 100° East 444 511 31,000  Level Minneapolis Center
05:23PM 43.2358 -92.0233 101° East 445 512 31,000  Level Minneapolis Center
05:24PM 43.2142 -91.8542 100° East 449 517 31,000  Level Minneapolis Center
05:25PM 43.1886 -91.6778 101° East 463 533 31,000  Level Minneapolis Center
05:26PM 43.1342 -91.5056 113° Southeast 490 564 31,000  Level Minneapolis Center
05:28PM 43.0756 -91.3367 115° Southeast 493 567 31,000  Level Minneapolis Center
05:29PM 43.0156 -91.1697 116° Southeast 489 563 31,000  Level Minneapolis Center
05:30PM 42.9344 -90.9389 116° Southeast 485 558 31,000  Level Minneapolis Center
05:31PM 42.8764 -90.7756 116° Southeast 482 555 31,000 -60 Level Minneapolis Center
05:32PM 42.7994 -90.5500 115° Southeast 479 551 30,900 -780 Descending Chicago Center
05:33PM 42.7414 -90.3889 116° Southeast 478 550 29,200 -1,800 Descending Chicago Center
05:34PM 42.6844 -90.2347 117° Southeast 462 532 27,300 -1,800 Descending Chicago Center
05:35PM 42.6278 -90.0786 116° Southeast 464 534 25,600 -1,860 Descending Chicago Center
05:36PM 42.5650 -89.9053 116° Southeast 464 534 23,500 -2,100 Descending Chicago Center
05:37PM 42.5142 -89.7200 110° East 457 526 21,300 -2,040 Descending Chicago Center
05:38PM 42.4967 -89.5575 98° East 441 507 19,300 -1,860 Descending Chicago Center
05:39PM 42.4786 -89.3975 99° East 433 498 17,500 -1,800 Descending Chicago Center
05:40PM 42.4614 -89.2475 99° East 409 471 15,600 -1,860 Descending Chicago Center
05:41PM 42.4456 -89.1075 99° East 381 438 13,700 -2,040 Descending Chicago Center
05:42PM 42.4278 -88.9525 99° East 362 417 11,500 -1,320 Descending Chicago Center
05:44PM 42.4131 -88.8256 99° East 347 399 11,000 -540 Descending Chicago Center
05:45PM 42.4000 -88.7094 99° East 320 368 10,400 -540 Descending Chicago Center
05:46PM 42.3858 -88.5925 99° East 317 365 10,000 -240 Descending Chicago Center
05:47PM 42.3700 -88.4808 101° East 307 353 10,000 -480 Level Chicago Center
05:48PM 42.3239 -88.3642 118° Southeast 304 350 9,100 -840 Descending Chicago Center
05:49PM 42.2800 -88.2892 128° Southeast 302 348 8,300 -1,020 Descending Chicago Center
05:50PM 42.2236 -88.1797 125° Southeast 301 346 7,100 -660 Descending Chicago Center
05:51PM 42.1906 -88.0806 114° Southeast 292 336 7,000 -60 Descending Chicago Center
05:52PM 42.1558 -87.9814 115° Southeast 294 338 7,000  Level Chicago Center
05:53PM 42.1531 -87.8703 92° East 299 344 7,000  Level Chicago Center
05:54PM 42.1347 -87.7633 103° East 294 338 7,000 -540 Level Chicago Center
05:55PM 42.1122 -87.6342 103° East 297 342 5,900 -1,020 Descending Chicago Center
05:56PM 42.0950 -87.5322 103° East 284 327 4,900 -960 Descending Chicago Center
05:57PM 42.0511 -87.4592 129° Southeast 281 323 4,000 -480 Descending Chicago Center
05:58PM 42.0058 -87.5064 218° Southwest 243 280 4,000  Level Chicago Center
05:59PM 42.0008 -87.5856 265° West 218 251 4,000 -60 Level Chicago Center
06:00PM 42.0039 -87.6775 273° West 213 245 3,900 -540 Descending Chicago Center
06:01PM 42.0036 -87.7433 270° West 199 229 2,900 -960 Descending Chicago Center
06:02PM 42.0031 -87.8072 269° West 185 213 2,000 -780 Descending Chicago Center
06:03PM 42.0036 -87.8603 271° West 168 193 1,300 -720 Descending Chicago Center